Time;durP1;ratioP1;P1;durP2;ratioP2;P2;SDS_P1;SDS_P2;PMS_P1;PMS_P2;Temp;Humidity;BMP_temperature;BMP_pressure;BME280_temperature;BME280_humidity;BME280_pressure;Samples;Min_cycle;Max_cycle;Signal;HPM_P1;HPM_P2
2023/02/18 00:00:16;;;;;;;56.95;27.52;;;;;;;3.46;57.43;100835.66;5047904;28;20400;-36
2023/02/18 00:02:41;;;;;;;56.42;27.38;;;;;;;3.37;57.54;100844.47;5047763;28;20504;-35
2023/02/18 00:05:07;;;;;;;60.08;28.60;;;;;;;3.47;57.45;100853.13;5047443;28;20094;-36
2023/02/18 00:07:39;;;;;;;64.45;30.13;;;;;;;3.45;57.48;100835.81;5047409;28;20036;-35
2023/02/18 00:10:06;;;;;;;57.30;28.95;;;;;;;3.65;56.91;100854.91;5047476;28;20064;-36
2023/02/18 00:12:32;;;;;;;83.10;38.85;;;;;;;3.49;56.70;100839.78;5047679;28;20029;-35
2023/02/18 00:14:57;;;;;;;82.97;35.33;;;;;;;3.21;58.00;100842.56;5047581;28;20056;-35
2023/02/18 00:17:23;;;;;;;75.88;33.55;;;;;;;2.58;59.62;100831.06;5048335;28;20021;-35
2023/02/18 00:19:48;;;;;;;59.60;27.15;;;;;;;2.36;60.46;100821.75;5051775;28;20116;-35
2023/02/18 00:22:14;;;;;;;47.97;23.67;;;;;;;2.71;59.17;100820.16;5051279;28;20668;-36
2023/02/18 00:24:47;;;;;;;47.85;23.05;;;;;;;2.46;60.23;100815.63;5050994;28;20060;-36
2023/02/18 00:27:12;;;;;;;46.60;23.08;;;;;;;2.28;60.85;100807.69;5051238;28;20065;-35
2023/02/18 00:29:38;;;;;;;48.00;23.05;;;;;;;2.15;60.24;100792.25;5051520;28;20576;-36
2023/02/18 00:32:03;;;;;;;45.90;22.67;;;;;;;2.67;59.24;100824.06;5050031;28;20033;-35
2023/02/18 00:34:29;;;;;;;51.72;23.60;;;;;;;2.97;58.94;100820.25;5051266;28;20520;-35
2023/02/18 00:36:54;;;;;;;48.78;23.58;;;;;;;3.03;58.30;100805.66;5050965;28;20021;-36
2023/02/18 00:39:20;;;;;;;49.58;24.95;;;;;;;3.15;57.91;100809.72;5050376;28;20040;-35
2023/02/18 00:41:45;;;;;;;49.83;23.60;;;;;;;3.07;57.74;100799.09;5051490;28;20033;-35
2023/02/18 00:44:13;;;;;;;59.83;26.65;;;;;;;3.22;57.85;100808.09;5050848;28;20482;-35
2023/02/18 00:46:39;;;;;;;58.65;29.10;;;;;;;3.08;57.58;100790.22;5050899;28;20025;-36
2023/02/18 00:49:07;;;;;;;58.28;27.77;;;;;;;3.06;57.85;100802.69;5050809;28;20045;-35
2023/02/18 00:51:33;;;;;;;47.22;22.63;;;;;;;3.13;57.73;100781.88;5049375;28;20068;-36
2023/02/18 00:53:58;;;;;;;46.72;23.13;;;;;;;3.42;57.67;100798.22;5050530;28;20080;-35
2023/02/18 00:56:24;;;;;;;41.95;21.00;;;;;;;3.25;57.54;100779.78;5050633;28;20037;-35
2023/02/18 00:58:49;;;;;;;42.70;20.80;;;;;;;3.19;57.29;100771.53;5050821;28;20479;-35
2023/02/18 01:01:15;;;;;;;39.55;19.95;;;;;;;3.11;57.88;100782.00;5050528;28;20493;-36
2023/02/18 01:03:44;;;;;;;43.67;19.65;;;;;;;3.05;57.66;100774.72;5050518;28;20029;-35
2023/02/18 01:06:13;;;;;;;44.83;21.13;;;;;;;2.31;59.57;100747.69;5050572;28;20515;-36
2023/02/18 01:08:39;;;;;;;46.08;21.88;;;;;;;2.59;58.75;100747.63;5050361;28;20144;-35
2023/02/18 01:11:06;;;;;;;51.67;24.35;;;;;;;2.86;58.04;100744.09;5050288;28;20083;-35
2023/02/18 01:13:32;;;;;;;52.30;23.65;;;;;;;2.55;59.35;100730.47;5049834;28;20560;-35
2023/02/18 01:15:57;;;;;;;42.63;20.90;;;;;;;2.88;58.98;100733.38;5050006;28;20075;-35
2023/02/18 01:18:25;;;;;;;44.90;20.20;;;;;;;3.10;57.88;100751.34;5050008;28;20060;-35
2023/02/18 01:20:51;;;;;;;32.17;18.30;;;;;;;3.16;57.71;100752.56;5049731;28;20079;-35
2023/02/18 01:23:17;;;;;;;41.65;19.02;;;;;;;3.00;58.26;100750.63;5049881;28;20521;-36
2023/02/18 01:25:42;;;;;;;37.50;18.15;;;;;;;2.91;57.48;100731.28;5049749;28;20040;-35
2023/02/18 01:28:10;;;;;;;40.63;18.98;;;;;;;2.79;58.01;100727.22;5049979;28;20033;-35
2023/02/18 01:30:36;;;;;;;31.35;16.15;;;;;;;2.66;58.25;100732.88;5049790;28;20116;-35
2023/02/18 01:33:04;;;;;;;35.00;15.68;;;;;;;2.70;58.04;100731.59;5049755;28;20394;-35
2023/02/18 01:35:29;;;;;;;29.85;15.38;;;;;;;2.94;56.58;100719.59;5049497;28;20433;-35
2023/02/18 01:37:55;;;;;;;31.52;14.93;;;;;;;2.97;56.30;100721.94;5049725;28;20029;-35
2023/02/18 01:40:23;;;;;;;25.90;12.93;;;;;;;3.05;57.26;100732.56;5049468;28;20057;-35
2023/02/18 01:42:49;;;;;;;26.05;13.18;;;;;;;2.89;57.00;100727.16;5049934;28;20041;-35
2023/02/18 01:45:33;;;;;;;28.35;13.90;;;;;;;2.92;57.23;100697.84;5049213;28;20032;-35
2023/02/18 01:47:59;;;;;;;28.40;14.88;;;;;;;2.81;57.67;100706.84;5049107;28;20032;-35
2023/02/18 01:50:26;;;;;;;33.05;16.45;;;;;;;2.81;57.92;100715.56;5049530;28;20084;-35
2023/02/18 01:52:51;;;;;;;34.20;16.98;;;;;;;2.71;58.18;100703.47;5049314;28;20037;-35
2023/02/18 01:55:17;;;;;;;34.30;17.48;;;;;;;2.34;59.10;100700.00;5049215;28;20033;-35
2023/02/18 01:57:42;;;;;;;34.65;15.07;;;;;;;2.30;59.06;100726.78;5049384;28;20396;-35
2023/02/18 02:00:12;;;;;;;30.02;16.08;;;;;;;2.18;59.42;100703.28;5049599;28;20106;-35
2023/02/18 02:02:44;;;;;;;34.85;16.38;;;;;;;2.04;60.33;100716.13;5049368;28;20036;-35
2023/02/18 02:05:10;;;;;;;35.65;17.38;;;;;;;2.29;59.77;100709.31;5029532;28;20107;-35
2023/02/18 02:07:37;;;;;;;38.70;18.13;;;;;;;1.83;61.12;100698.78;5029218;28;20029;-35
2023/02/18 02:10:04;;;;;;;32.53;16.27;;;;;;;1.37;62.09;100709.22;5029058;28;20034;-35
2023/02/18 02:13:21;;;;;;;38.53;17.85;;;;;;;1.76;62.16;100710.88;5029157;28;20116;-36
2023/02/18 02:15:54;;;;;;;32.00;15.40;;;;;;;0.97;63.01;100717.31;5038033;28;20045;-35
2023/02/18 02:18:38;;;;;;;29.17;16.45;;;;;;;0.61;64.56;100717.06;5028826;28;20913;-35
2023/02/18 02:21:21;;;;;;;32.17;16.02;;;;;;;0.44;64.31;100715.97;5027493;28;20390;-35
2023/02/18 02:24:08;;;;;;;30.98;16.55;;;;;;;0.88;64.67;100723.41;5028985;28;20112;-35
2023/02/18 02:27:01;;;;;;;35.03;17.38;;;;;;;1.10;64.68;100738.03;5028690;28;20037;-35
2023/02/18 02:29:45;;;;;;;38.85;18.13;;;;;;;0.83;64.75;100715.97;5028494;28;20021;-35
2023/02/18 02:32:51;;;;;;;34.28;17.92;;;;;;;1.03;65.12;100722.03;5028889;28;20048;-34
2023/02/18 02:35:23;;;;;;;30.63;15.65;;;;;;;0.73;65.95;100712.50;5028613;28;20030;-36
2023/02/18 02:38:05;;;;;;;35.42;17.05;;;;;;;0.35;66.41;100694.00;5028450;28;20505;-34
2023/02/18 02:40:31;;;;;;;31.88;15.68;;;;;;;0.40;67.25;100718.00;5027854;28;20048;-34
2023/02/18 02:43:30;;;;;;;34.97;15.93;;;;;;;0.92;66.37;100719.53;5028759;28;20041;-34
2023/02/18 02:46:14;;;;;;;30.42;15.30;;;;;;;1.30;64.66;100721.25;5028208;28;20029;-34
2023/02/18 02:48:57;;;;;;;35.50;15.70;;;;;;;1.72;63.93;100738.44;5028247;28;20489;-36
2023/02/18 02:51:27;;;;;;;29.48;15.10;;;;;;;1.44;64.78;100741.00;5028377;28;20039;-35
2023/02/18 02:53:52;;;;;;;28.52;14.85;;;;;;;1.68;63.87;100721.28;5028713;28;20041;-34
2023/02/18 02:56:23;;;;;;;26.63;15.68;;;;;;;1.69;63.57;100734.28;5028120;28;20406;-35
2023/02/18 02:59:03;;;;;;;28.00;16.05;;;;;;;1.34;64.74;100753.34;5027884;28;20033;-35
2023/02/18 03:01:37;;;;;;;30.70;15.40;;;;;;;0.94;65.38;100736.84;5028092;28;20025;-35
2023/02/18 03:04:27;;;;;;;27.27;15.25;;;;;;;0.94;65.51;100730.72;5028106;28;20041;-36
2023/02/18 03:06:52;;;;;;;28.23;14.80;;;;;;;0.77;66.18;100742.75;5027515;28;20112;-35
2023/02/18 03:09:25;;;;;;;32.05;15.65;;;;;;;1.08;64.91;100739.97;5027627;28;20104;-35
2023/02/18 03:12:14;;;;;;;28.27;14.93;;;;;;;0.68;66.52;100736.56;5028050;28;20037;-35
2023/02/18 03:14:49;;;;;;;31.20;16.25;;;;;;;0.53;67.36;100732.66;5028012;28;20055;-34
2023/02/18 03:17:24;;;;;;;31.15;16.92;;;;;;;0.92;66.71;100732.66;5027446;28;20040;-35
2023/02/18 03:19:57;;;;;;;32.35;17.13;;;;;;;1.35;65.85;100716.44;5026321;28;20452;-35
2023/02/18 03:22:29;;;;;;;39.65;17.02;;;;;;;0.84;66.47;100701.03;5027606;28;20763;-35
2023/02/18 03:24:56;;;;;;;28.77;15.15;;;;;;;1.10;66.92;100707.34;5027808;28;20034;-35
2023/02/18 03:27:53;;;;;;;35.58;17.27;;;;;;;1.49;65.16;100691.47;5027416;28;20125;-35
2023/02/18 03:30:29;;;;;;;36.58;16.67;;;;;;;0.90;66.43;100680.31;5027557;28;20055;-35
2023/02/18 03:33:01;;;;;;;33.47;16.55;;;;;;;1.29;65.88;100695.13;5027791;28;20084;-36
2023/02/18 03:35:27;;;;;;;34.13;17.23;;;;;;;1.07;66.19;100712.88;5025945;28;20040;-35
2023/02/18 03:38:06;;;;;;;35.67;17.25;;;;;;;1.09;66.49;100705.69;5027694;28;20026;-35
2023/02/18 03:40:31;;;;;;;37.40;18.60;;;;;;;1.44;65.73;100725.25;5027131;28;20119;-35
2023/02/18 03:43:00;;;;;;;35.25;18.17;;;;;;;1.48;65.29;100716.09;5027734;28;20055;-35
2023/02/18 03:45:26;;;;;;;32.10;16.67;;;;;;;1.29;65.18;100690.72;5027258;28;20025;-36
2023/02/18 03:47:52;;;;;;;36.22;18.15;;;;;;;1.49;64.24;100704.63;5027495;28;20508;-37
2023/02/18 03:50:18;;;;;;;34.88;17.73;;;;;;;1.49;64.93;100723.03;5027621;28;20041;-35
2023/02/18 03:52:43;;;;;;;29.42;16.98;;;;;;;1.16;65.85;100735.66;5029116;28;20037;-35
2023/02/18 03:55:09;;;;;;;33.15;17.50;;;;;;;1.13;66.30;100717.56;5031291;28;20044;-35
2023/02/18 03:57:34;;;;;;;31.60;16.70;;;;;;;1.33;65.07;100713.09;5031402;28;20021;-34
2023/02/18 04:00:00;;;;;;;33.50;17.73;;;;;;;1.54;64.60;100727.84;5031685;28;20092;-35
2023/02/18 04:02:25;;;;;;;35.72;18.52;;;;;;;1.41;64.58;100722.91;5031315;28;20460;-35
2023/02/18 04:04:51;;;;;;;36.13;18.70;;;;;;;1.48;64.45;100725.78;5031527;28;20095;-34
2023/02/18 04:07:16;;;;;;;37.10;18.92;;;;;;;1.49;64.60;100720.41;5031423;28;20030;-34
2023/02/18 04:09:42;;;;;;;35.85;20.30;;;;;;;1.57;64.55;100725.75;5031128;28;20219;-36
2023/02/18 04:12:07;;;;;;;39.00;21.20;;;;;;;1.48;65.02;100731.88;5031397;28;20029;-35
2023/02/18 04:14:33;;;;;;;36.45;20.20;;;;;;;1.66;64.26;100733.75;5029841;28;20033;-35
2023/02/18 04:17:00;;;;;;;40.70;20.88;;;;;;;1.47;63.46;100711.81;5031176;28;20132;-35
2023/02/18 04:19:25;;;;;;;43.92;22.33;;;;;;;1.13;64.63;100737.78;5030795;28;20398;-35
2023/02/18 04:21:51;;;;;;;45.03;22.80;;;;;;;0.64;66.79;100731.72;5031166;28;20080;-35
2023/02/18 04:24:16;;;;;;;40.90;22.25;;;;;;;0.71;66.64;100725.75;5030802;28;20033;-35
2023/02/18 04:26:42;;;;;;;43.50;20.52;;;;;;;0.71;66.77;100743.31;5030951;28;20468;-35
2023/02/18 04:29:07;;;;;;;41.22;20.10;;;;;;;0.51;67.02;100745.09;5030875;28;20047;-35
2023/02/18 04:31:32;;;;;;;42.35;19.27;;;;;;;0.46;66.39;100732.41;5030717;28;20095;-35
2023/02/18 04:33:58;;;;;;;39.92;20.70;;;;;;;0.53;66.96;100730.91;5030952;28;20128;-35
2023/02/18 04:36:23;;;;;;;42.33;19.77;;;;;;;0.53;67.75;100730.03;5030776;28;20412;-35
2023/02/18 04:38:49;;;;;;;43.67;20.75;;;;;;;0.66;66.87;100735.03;5030669;28;20025;-36
2023/02/18 04:41:14;;;;;;;39.30;20.10;;;;;;;1.08;66.25;100761.00;5030357;28;20041;-35
2023/02/18 04:43:40;;;;;;;42.63;21.65;;;;;;;0.99;65.58;100749.53;5029521;28;20036;-34
2023/02/18 04:46:05;;;;;;;43.53;22.85;;;;;;;0.99;65.54;100760.84;5030437;28;20029;-35
2023/02/18 04:48:31;;;;;;;41.22;22.58;;;;;;;0.99;65.64;100745.09;5030443;28;20025;-35
2023/02/18 04:50:56;;;;;;;41.78;21.60;;;;;;;0.60;66.19;100733.78;5030622;28;20025;-34
2023/02/18 04:53:21;;;;;;;38.08;21.83;;;;;;;0.82;65.73;100734.47;5030425;28;20029;-34
2023/02/18 04:55:51;;;;;;;46.88;22.02;;;;;;;0.78;66.27;100755.75;5030682;28;20489;-35
2023/02/18 04:58:17;;;;;;;50.05;22.75;;;;;;;1.06;65.30;100755.06;5030360;28;20025;-35
2023/02/18 05:00:43;;;;;;;61.25;30.20;;;;;;;0.69;66.64;100740.00;5030368;28;20035;-35
2023/02/18 05:03:08;;;;;;;45.88;25.45;;;;;;;0.71;67.19;100731.00;5029739;28;20022;-35
2023/02/18 05:05:34;;;;;;;46.85;22.40;;;;;;;1.20;65.87;100750.19;5029990;28;20021;-36
2023/02/18 05:08:00;;;;;;;48.22;22.08;;;;;;;1.35;64.94;100741.88;5028617;28;20026;-35
2023/02/18 05:10:25;;;;;;;43.70;23.15;;;;;;;1.38;64.69;100752.09;5030189;28;20087;-36
2023/02/18 05:12:51;;;;;;;49.40;23.98;;;;;;;1.59;64.24;100731.72;5030272;28;20018;-36
2023/02/18 05:15:16;;;;;;;94.90;49.30;;;;;;;1.43;64.15;100744.63;5029946;28;20030;-35
2023/02/18 05:17:42;;;;;;;88.72;46.58;;;;;;;0.73;66.27;100712.50;5030132;28;20103;-35
2023/02/18 05:20:08;;;;;;;103.55;44.78;;;;;;;1.09;66.20;100760.03;5029861;28;20039;-34
2023/02/18 05:22:33;;;;;;;352.90;150.15;;;;;;;1.29;65.30;100748.53;5029763;28;20033;-35
2023/02/18 05:24:59;;;;;;;79.20;38.05;;;;;;;0.76;66.63;100752.44;5029855;28;20551;-36
2023/02/18 05:27:24;;;;;;;60.50;28.60;;;;;;;0.40;68.11;100736.38;5029696;28;20473;-35
2023/02/18 05:29:49;;;;;;;51.58;26.67;;;;;;;0.17;68.78;100734.97;5029887;28;20053;-35
2023/02/18 05:32:15;;;;;;;59.38;26.48;;;;;;;0.27;69.46;100730.59;5028533;28;20017;-35
2023/02/18 05:34:40;;;;;;;61.08;29.63;;;;;;;0.85;65.89;100726.31;5029822;28;20428;-35
2023/02/18 05:37:08;;;;;;;69.68;29.80;;;;;;;0.95;65.73;100722.72;5029480;28;20029;-35
2023/02/18 05:39:34;;;;;;;72.40;32.85;;;;;;;0.97;65.74;100747.03;5029436;28;20050;-36
2023/02/18 05:41:59;;;;;;;65.82;29.70;;;;;;;0.74;66.77;100727.31;5029777;28;20033;-35
2023/02/18 05:44:31;;;;;;;77.45;37.30;;;;;;;0.91;66.42;100739.72;5028435;28;20408;-36
2023/02/18 05:47:01;;;;;;;77.25;38.38;;;;;;;1.10;65.19;100744.13;5029407;28;20021;-35
2023/02/18 05:49:28;;;;;;;82.80;39.97;;;;;;;1.34;65.40;100769.13;5029157;28;20504;-35
2023/02/18 05:51:54;;;;;;;88.85;43.65;;;;;;;0.96;66.27;100744.53;5029420;28;20029;-35
2023/02/18 05:54:19;;;;;;;66.20;29.40;;;;;;;0.58;68.99;100764.59;5029532;28;20033;-35
2023/02/18 05:56:48;;;;;;;141.30;54.65;;;;;;;0.60;68.64;100763.50;5029403;28;20029;-34
2023/02/18 05:59:14;;;;;;;116.05;53.03;;;;;;;1.04;67.22;100768.31;5029531;28;20108;-35
2023/02/18 06:01:39;;;;;;;72.60;36.95;;;;;;;1.41;66.29;100772.84;5029296;28;20507;-35
2023/02/18 06:04:05;;;;;;;66.95;32.75;;;;;;;1.54;65.61;100751.50;5029035;28;20036;-36
2023/02/18 06:06:31;;;;;;;64.72;32.97;;;;;;;1.86;65.00;100772.16;5028926;28;20033;-35
2023/02/18 06:08:56;;;;;;;63.60;31.42;;;;;;;2.05;64.64;100765.16;5029585;28;20032;-35
2023/02/18 06:11:21;;;;;;;48.70;27.77;;;;;;;2.08;63.93;100759.59;5028996;28;20029;-35
2023/02/18 06:13:47;;;;;;;47.88;26.75;;;;;;;2.38;63.26;100772.44;5029074;28;20087;-35
2023/02/18 06:16:12;;;;;;;75.25;40.33;;;;;;;2.53;64.04;100764.00;5028121;28;20034;-35
2023/02/18 06:18:38;;;;;;;74.60;40.47;;;;;;;2.50;63.80;100764.34;5028809;28;20053;-35
2023/02/18 06:21:04;;;;;;;89.53;45.83;;;;;;;2.66;63.27;100766.31;5028757;28;20584;-36
2023/02/18 06:23:29;;;;;;;82.82;45.05;;;;;;;2.86;62.43;100761.69;5028720;28;20164;-35
2023/02/18 06:25:54;;;;;;;81.68;46.13;;;;;;;2.89;62.44;100758.78;5028652;28;20061;-36
2023/02/18 06:28:22;;;;;;;69.95;41.53;;;;;;;3.07;62.24;100753.50;5029086;28;20030;-36
2023/02/18 06:30:48;;;;;;;73.40;41.22;;;;;;;3.37;62.14;100753.03;5028703;28;20026;-36
2023/02/18 06:33:14;;;;;;;83.43;41.00;;;;;;;3.68;60.62;100754.34;5028445;28;20120;-35
2023/02/18 06:35:40;;;;;;;153.52;73.43;;;;;;;3.70;61.63;100752.38;5028312;28;20467;-36
2023/02/18 06:38:05;;;;;;;114.88;58.80;;;;;;;3.74;61.00;100764.28;5028695;28;20548;-36
2023/02/18 06:40:31;;;;;;;112.20;62.97;;;;;;;3.78;61.37;100749.78;5028093;28;20053;-36
2023/02/18 06:42:56;;;;;;;73.05;39.25;;;;;;;4.02;59.73;100749.91;5027182;28;20030;-36
2023/02/18 06:45:22;;;;;;;68.43;37.50;;;;;;;4.07;59.84;100744.16;5028269;28;20036;-35
2023/02/18 06:47:48;;;;;;;64.55;37.75;;;;;;;3.80;61.16;100724.06;5028187;28;20037;-36
2023/02/18 06:50:13;;;;;;;53.50;36.10;;;;;;;3.55;63.26;100708.13;5028230;28;20033;-35
2023/02/18 06:52:39;;;;;;;105.20;48.20;;;;;;;3.66;64.79;100719.38;5032892;28;20451;-36
2023/02/18 06:55:06;;;;;;;91.57;49.58;;;;;;;3.36;65.98;100695.19;5041801;28;20033;-36
2023/02/18 06:57:31;;;;;;;65.28;35.45;;;;;;;3.62;66.32;100714.44;5047836;28;20029;-36
2023/02/18 07:00:00;;;;;;;64.68;34.03;;;;;;;3.99;64.32;100726.47;5048051;28;20036;-36
2023/02/18 07:02:26;;;;;;;60.10;32.50;;;;;;;4.11;63.18;100715.63;5047779;28;20029;-36
2023/02/18 07:04:51;;;;;;;55.85;28.98;;;;;;;4.21;64.84;100714.50;5047968;28;20092;-36
2023/02/18 07:07:17;;;;;;;38.97;23.73;;;;;;;4.31;63.10;100693.25;5046164;28;20028;-36
2023/02/18 07:09:42;;;;;;;43.30;23.08;;;;;;;4.56;64.01;100706.47;5037782;28;20697;-36
2023/02/18 07:12:08;;;;;;;34.35;19.30;;;;;;;4.51;63.89;100703.50;5026506;28;20382;-37
2023/02/18 07:14:33;;;;;;;30.65;17.80;;;;;;;4.64;63.56;100703.84;5027703;28;20045;-36
2023/02/18 07:16:58;;;;;;;32.80;18.80;;;;;;;4.57;64.87;100692.25;5039061;28;20044;-36
2023/02/18 07:19:24;;;;;;;31.08;17.13;;;;;;;4.65;64.90;100692.28;5027429;28;20033;-36
2023/02/18 07:21:49;;;;;;;25.50;13.73;;;;;;;4.88;63.51;100710.91;5028064;28;20025;-36
2023/02/18 07:24:15;;;;;;;26.77;14.30;;;;;;;5.00;61.18;100709.59;5027738;28;20033;-35
2023/02/18 07:26:40;;;;;;;29.90;15.30;;;;;;;5.48;59.65;100741.44;5027686;28;20032;-36
2023/02/18 07:29:05;;;;;;;46.03;24.35;;;;;;;5.78;59.13;100731.09;5027634;28;20029;-36
2023/02/18 07:31:31;;;;;;;46.28;27.40;;;;;;;5.77;58.30;100726.81;5041208;28;20055;-37
2023/02/18 07:33:56;;;;;;;56.72;30.80;;;;;;;5.92;58.47;100703.91;5047332;28;20736;-37
2023/02/18 07:36:22;;;;;;;53.78;29.88;;;;;;;5.99;56.61;100699.59;5046226;28;20063;-38
2023/02/18 07:38:47;;;;;;;62.83;31.30;;;;;;;6.22;55.58;100693.53;5047629;28;20167;-36
2023/02/18 07:41:18;;;;;;;59.60;30.23;;;;;;;6.41;55.71;100686.94;5042695;28;20152;-37
2023/02/18 07:43:44;;;;;;;36.28;21.35;;;;;;;6.66;55.28;100684.09;5036281;28;20037;-36
2023/02/18 07:46:12;;;;;;;27.30;16.77;;;;;;;6.75;54.45;100691.81;5027286;28;20397;-36
2023/02/18 07:48:38;;;;;;;30.95;17.90;;;;;;;7.03;54.66;100681.47;5038420;28;20017;-36
2023/02/18 07:51:08;;;;;;;34.58;18.33;;;;;;;7.31;55.22;100672.06;5027458;28;20735;-37
2023/02/18 07:53:35;;;;;;;39.22;19.98;;;;;;;7.57;53.30;100661.00;5038279;28;20513;-37
2023/02/18 07:56:01;;;;;;;102.15;43.38;;;;;;;7.88;52.77;100671.38;5027139;28;20435;-37
2023/02/18 07:58:29;;;;;;;75.53;36.60;;;;;;;8.06;51.34;100678.94;5037483;28;20373;-36
2023/02/18 08:00:55;;;;;;;83.18;48.83;;;;;;;8.18;50.29;100650.88;5035837;28;20497;-37
2023/02/18 08:03:24;;;;;;;26.52;15.93;;;;;;;8.20;51.44;100653.34;5035177;28;20501;-37
2023/02/18 08:05:56;;;;;;;33.22;18.83;;;;;;;8.26;51.50;100655.25;5035293;28;20092;-36
2023/02/18 08:08:25;;;;;;;61.13;30.45;;;;;;;8.19;51.88;100659.66;5035138;28;20025;-37
2023/02/18 08:10:51;;;;;;;;;;;;;;;8.17;52.87;100656.38;5035905;28;20029;-37
2023/02/18 08:13:19;;;;;;;49.38;26.35;;;;;;;8.35;51.60;100659.41;5035503;28;19959;-37
2023/02/18 08:15:44;;;;;;;48.60;23.50;;;;;;;8.42;52.04;100659.53;5046482;28;20040;-36
2023/02/18 08:18:18;;;;;;;72.80;47.70;;;;;;;8.42;52.70;100663.00;5047049;28;20033;-37
2023/02/18 08:20:46;;;;;;;48.45;27.38;;;;;;;8.41;51.98;100664.00;5046919;28;20554;-37
2023/02/18 08:23:12;;;;;;;23.02;13.80;;;;;;;8.66;48.36;100639.69;5047032;28;20099;-36
2023/02/18 08:25:38;;;;;;;60.63;40.00;;;;;;;8.92;46.09;100654.22;5045799;28;20111;-36
2023/02/18 08:28:04;;;;;;;28.80;15.65;;;;;;;9.27;46.26;100665.69;5046604;28;20128;-37
2023/02/18 08:30:29;;;;;;;34.65;18.30;;;;;;;9.71;45.54;100669.03;5046890;28;20094;-37
2023/02/18 08:32:55;;;;;;;43.83;26.40;;;;;;;9.90;44.92;100665.59;5047001;28;20028;-36
2023/02/18 08:35:20;;;;;;;54.75;29.67;;;;;;;9.95;45.49;100665.84;5046500;28;20029;-37
2023/02/18 08:37:46;;;;;;;53.22;29.92;;;;;;;10.05;45.59;100660.09;5046951;28;20412;-36
2023/02/18 08:40:12;;;;;;;41.80;24.60;;;;;;;10.05;45.19;100663.63;5038543;28;20421;-36
2023/02/18 08:42:38;;;;;;;37.22;18.90;;;;;;;10.05;44.43;100662.78;5030020;28;20041;-38
2023/02/18 08:45:04;;;;;;;38.53;21.08;;;;;;;10.23;44.93;100654.22;5034383;28;20044;-37
2023/02/18 08:47:30;;;;;;;42.10;23.52;;;;;;;10.27;43.83;100652.78;5036379;28;20029;-38
2023/02/18 08:49:55;;;;;;;31.98;19.95;;;;;;;10.29;44.29;100653.41;5029882;28;20037;-36
2023/02/18 08:52:24;;;;;;;102.70;68.97;;;;;;;10.64;43.37;100653.25;5029536;28;20025;-37
2023/02/18 08:54:51;;;;;;;;;;;;;;;10.83;42.63;100649.78;5030479;28;20033;-37
2023/02/18 08:57:20;;;;;;;44.28;29.50;;;;;;;11.26;41.82;100643.97;5031990;28;19924;-38
2023/02/18 08:59:45;;;;;;;33.25;18.92;;;;;;;11.39;41.94;100626.28;5041181;28;20560;-36
2023/02/18 09:02:13;;;;;;;25.08;13.48;;;;;;;11.85;40.65;100643.97;5048128;28;20136;-37
2023/02/18 09:04:38;;;;;;;23.98;13.20;;;;;;;11.98;40.28;100627.09;5049647;28;20029;-37
2023/02/18 09:07:06;;;;;;;30.92;21.80;;;;;;;11.91;41.02;100608.41;5048577;28;20039;-36
2023/02/18 09:09:32;;;;;;;27.88;15.25;;;;;;;12.12;40.41;100635.84;5039940;28;20413;-37
2023/02/18 09:11:57;;;;;;;26.40;14.52;;;;;;;12.03;40.47;100630.75;5038183;28;20025;-37
2023/02/18 09:14:23;;;;;;;27.73;16.38;;;;;;;12.41;40.38;100632.56;5038574;28;20118;-36
2023/02/18 09:16:49;;;;;;;24.45;13.45;;;;;;;12.89;38.39;100633.00;5038403;28;20477;-36
2023/02/18 09:19:15;;;;;;;23.90;15.85;;;;;;;13.09;38.12;100644.31;5038156;28;20029;-37
2023/02/18 09:21:40;;;;;;;22.05;12.95;;;;;;;13.43;38.39;100634.13;5039605;28;20128;-36
2023/02/18 09:24:09;;;;;;;26.35;12.90;;;;;;;13.66;38.87;100644.97;5037501;28;20049;-38
2023/02/18 09:26:35;;;;;;;21.98;12.18;;;;;;;14.20;37.66;100646.94;5037834;28;20025;-36
2023/02/18 09:29:00;;;;;;;20.17;11.73;;;;;;;14.36;37.25;100632.84;5039549;28;20028;-37
2023/02/18 09:31:27;;;;;;;20.70;12.00;;;;;;;14.41;37.65;100619.59;5037325;28;20771;-36
2023/02/18 09:33:56;;;;;;;17.25;10.90;;;;;;;14.66;36.99;100640.06;5038338;28;20029;-36
2023/02/18 09:36:22;;;;;;;23.20;11.43;;;;;;;14.65;37.47;100622.34;5039490;28;20575;-37
2023/02/18 09:38:51;;;;;;;17.73;10.85;;;;;;;14.90;37.09;100632.84;5037563;28;20018;-37
2023/02/18 09:41:41;;;;;;;17.77;10.73;;;;;;;15.13;37.41;100625.84;5037103;28;20057;-37
2023/02/18 09:44:42;;;;;;;19.88;10.95;;;;;;;15.29;36.66;100635.88;5039173;28;20029;-37
2023/02/18 09:47:33;;;;;;;19.60;10.93;;;;;;;15.80;35.91;100620.00;5036984;28;20041;-37
2023/02/18 09:50:06;;;;;;;16.88;10.20;;;;;;;16.31;35.28;100604.75;5038509;28;20454;-37
2023/02/18 09:52:34;;;;;;;14.57;9.05;;;;;;;16.46;34.28;100617.66;5037635;28;20044;-37
2023/02/18 09:55:01;;;;;;;;;;;;;;;16.90;31.28;100623.22;5037785;28;20103;-37
2023/02/18 09:57:41;;;;;;;11.63;6.13;;;;;;;16.90;30.29;100617.00;5038776;28;19973;-37
2023/02/18 10:00:14;;;;;;;9.20;4.22;;;;;;;16.98;28.71;100622.78;5038026;28;20147;-37
2023/02/18 10:02:49;;;;;;;9.73;4.95;;;;;;;17.25;29.47;100624.78;5049218;28;20032;-36
2023/02/18 10:05:15;;;;;;;10.50;5.28;;;;;;;17.52;28.66;100611.34;5048605;28;20045;-36
2023/02/18 10:07:41;;;;;;;9.50;4.90;;;;;;;17.50;28.73;100593.81;5048784;28;20032;-37
2023/02/18 10:10:43;;;;;;;9.55;4.97;;;;;;;17.40;28.61;100591.78;5048673;28;20060;-37
2023/02/18 10:13:15;;;;;;;8.48;3.30;;;;;;;17.12;28.03;100582.00;5048699;28;20020;-36
2023/02/18 10:15:42;;;;;;;9.20;3.90;;;;;;;17.15;28.51;100560.75;5048757;28;20029;-36
2023/02/18 10:18:28;;;;;;;9.27;3.45;;;;;;;17.20;27.89;100560.84;5048757;28;20028;-36
2023/02/18 10:21:03;;;;;;;7.72;3.50;;;;;;;17.48;27.99;100575.97;5048817;28;20508;-37
2023/02/18 10:23:32;;;;;;;7.50;3.63;;;;;;;17.43;27.54;100570.53;5048516;28;20086;-36
2023/02/18 10:26:00;;;;;;;10.20;4.70;;;;;;;17.82;28.17;100567.72;5048459;28;20033;-37
2023/02/18 10:28:26;;;;;;;11.40;3.60;;;;;;;17.58;27.27;100556.41;5048426;28;20028;-36
2023/02/18 10:31:09;;;;;;;7.20;4.28;;;;;;;17.51;27.87;100566.59;5048281;28;20390;-36
2023/02/18 10:33:49;;;;;;;7.97;3.88;;;;;;;17.56;28.23;100568.53;5048216;28;20604;-36
2023/02/18 10:36:30;;;;;;;8.15;3.83;;;;;;;17.70;27.06;100545.47;5048201;28;20097;-37
2023/02/18 10:39:17;;;;;;;8.43;3.67;;;;;;;17.92;26.93;100548.16;5048518;28;20029;-35
2023/02/18 10:42:04;;;;;;;8.63;4.60;;;;;;;18.39;27.33;100547.47;5047784;28;20084;-37
2023/02/18 10:45:02;;;;;;;10.07;4.55;;;;;;;18.91;26.00;100542.41;5048270;28;20032;-36
2023/02/18 10:47:38;;;;;;;8.88;4.57;;;;;;;18.46;26.06;100515.63;5047687;28;20037;-36
2023/02/18 10:50:28;;;;;;;8.75;4.38;;;;;;;18.56;26.91;100520.28;5048263;28;20100;-37
2023/02/18 10:52:56;;;;;;;7.80;3.97;;;;;;;18.41;26.80;100523.72;5047969;28;20029;-36
2023/02/18 10:55:38;;;;;;;10.05;4.70;;;;;;;18.44;26.78;100511.56;5047746;28;20017;-36
2023/02/18 10:58:23;;;;;;;8.40;3.90;;;;;;;18.70;26.76;100501.75;5047818;28;20086;-37
2023/02/18 11:00:48;;;;;;;7.05;3.92;;;;;;;18.71;26.55;100503.34;5027697;28;20033;-37
2023/02/18 11:03:23;;;;;;;7.72;3.97;;;;;;;18.92;26.94;100506.19;5027477;28;20394;-37
2023/02/18 11:05:55;;;;;;;10.68;3.80;;;;;;;19.00;26.30;100493.00;5027829;28;20079;-37
2023/02/18 11:08:25;;;;;;;9.63;4.32;;;;;;;18.72;25.83;100507.69;5027827;28;20429;-36
2023/02/18 11:10:54;;;;;;;8.65;4.28;;;;;;;18.84;26.20;100502.91;5027920;28;20029;-37
2023/02/18 11:13:30;;;;;;;7.15;4.25;;;;;;;18.79;26.26;100494.78;5027484;28;20501;-37
2023/02/18 11:15:59;;;;;;;12.05;4.45;;;;;;;19.09;26.24;100479.78;5027927;28;20033;-38
2023/02/18 11:18:24;;;;;;;10.35;4.38;;;;;;;19.51;25.84;100503.13;5027679;28;20460;-37
2023/02/18 11:21:02;;;;;;;10.80;5.00;;;;;;;19.53;24.97;100500.97;5027692;28;20499;-37
2023/02/18 11:23:29;;;;;;;13.20;5.50;;;;;;;19.52;25.46;100476.91;5027559;28;20033;-37
2023/02/18 11:26:00;;;;;;;9.65;5.18;;;;;;;20.11;25.29;100494.56;5027641;28;20033;-37